NCAR-RAP Real-Time Weather Data

Output produced by METARs form (29 September 2016  23:47 UTC)
found at http://weather.rap.ucar.edu/surface/
 
Conditions at: KLOU observed 29 September 2016  22:53 UTC
Temperature: 17.8°C (64°F)
Dewpoint: 11.1°C (52°F) [RH = 65%]
Pressure (altimeter): 30.09 inches Hg (1019.0 mb)
[Sea-level pressure: 1018.6 mb]
Winds: variable direction winds at 3 MPH (3 knots; 1.6 m/s)
Visibility: 10 or more miles (16+ km)
Ceiling: 8000 feet AGL
Clouds: few clouds at 3200 feet AGL
scattered clouds at 4100 feet AGL
overcast cloud deck at 8000 feet AGL
Present Weather: no significant weather observed at this time
KLOU 292253Z VRB03KT 10SM FEW032 SCT041 OVC080 18/11 A3009 RMK AO2 SLP186 T01780111